createdAt,value
2023-01-30T00:00:05.612Z,15.32
2023-01-30T00:05:07.192Z,15.18
2023-01-30T00:10:09.225Z,13.98
2023-01-30T00:15:10.050Z,16.30
2023-01-30T00:20:11.549Z,13.95
2023-01-30T00:25:12.424Z,15.60
2023-01-30T00:30:13.740Z,15.65
2023-01-30T00:35:14.608Z,17.35
2023-01-30T00:40:16.432Z,16.12
2023-01-30T00:45:36.028Z,16.40
2023-01-30T00:50:42.906Z,15.27
2023-01-30T00:55:45.975Z,15.13
2023-01-30T01:00:46.845Z,15.27
2023-01-30T01:05:48.213Z,15.90
2023-01-30T01:10:49.039Z,15.27
2023-01-30T01:15:49.952Z,15.52
2023-01-30T01:20:50.789Z,18.15
2023-01-30T01:25:51.537Z,17.77
2023-01-30T01:30:52.402Z,18.75
2023-01-30T01:35:56.669Z,17.00
2023-01-30T01:41:05.307Z,17.12
2023-01-30T01:46:17.833Z,15.50
2023-01-30T01:51:33.053Z,17.17
2023-01-30T01:56:38.625Z,15.93
2023-01-30T02:01:39.693Z,15.73
2023-01-30T02:06:42.719Z,14.60
2023-01-30T02:11:50.153Z,15.95
2023-01-30T02:16:50.893Z,17.00
2023-01-30T02:24:45.116Z,15.18
2023-01-30T02:30:11.455Z,14.37
2023-01-30T02:35:40.281Z,14.02
2023-01-30T02:41:26.715Z,13.07
2023-01-30T02:47:00.217Z,14.38
2023-01-30T02:57:03.550Z,11.88
2023-01-30T03:05:21.965Z,11.90
2023-01-30T03:10:40.960Z,12.07
2023-01-30T03:15:55.171Z,11.68
2023-01-30T03:20:56.284Z,11.35
2023-01-30T03:25:58.243Z,12.50
2023-01-30T03:30:59.103Z,11.45
2023-01-30T03:36:00.145Z,11.95
2023-01-30T03:41:03.362Z,11.32
2023-01-30T03:46:04.519Z,11.50
2023-01-30T03:51:05.479Z,11.82
2023-01-30T03:56:06.320Z,11.45
2023-01-30T04:01:08.327Z,11.07
2023-01-30T04:06:09.298Z,11.00
2023-01-30T04:11:10.264Z,11.55
2023-01-30T04:16:23.351Z,10.15
2023-01-30T04:22:55.636Z,11.43
2023-01-30T04:27:56.904Z,11.82
2023-01-30T04:33:04.472Z,11.18
2023-01-30T04:38:05.270Z,11.10
2023-01-30T04:43:06.541Z,11.30
2023-01-30T04:49:41.114Z,9.48
2023-01-30T04:54:42.170Z,9.00
2023-01-30T04:59:43.030Z,10.10
2023-01-30T05:04:44.980Z,8.93
2023-01-30T05:09:45.771Z,7.62
2023-01-30T05:14:47.144Z,8.57
2023-01-30T05:19:47.947Z,7.57
2023-01-30T05:24:48.738Z,7.97
2023-01-30T05:29:49.464Z,10.75
2023-01-30T05:34:50.257Z,10.77
2023-01-30T05:39:51.255Z,12.13
2023-01-30T05:44:52.085Z,9.77
2023-01-30T05:49:52.796Z,13.20
2023-01-30T05:54:53.597Z,11.30
2023-01-30T05:59:54.328Z,10.00
2023-01-30T06:04:55.259Z,13.27
2023-01-30T06:09:55.971Z,13.55
2023-01-30T06:14:57.923Z,14.00
2023-01-30T06:19:58.632Z,12.85
2023-01-30T06:24:59.423Z,13.38
2023-01-30T06:30:00.299Z,13.30
2023-01-30T06:35:01.353Z,13.05
2023-01-30T06:40:02.275Z,11.60
2023-01-30T06:45:04.100Z,11.07
2023-01-30T06:50:04.945Z,11.57
2023-01-30T06:55:07.249Z,9.27
2023-01-30T07:00:11.462Z,10.40
2023-01-30T07:05:13.599Z,8.75
2023-01-30T07:10:14.661Z,7.18
2023-01-30T07:15:15.798Z,6.55
2023-01-30T07:20:16.780Z,6.18
2023-01-30T07:25:22.493Z,5.93
2023-01-30T07:30:24.336Z,5.25
2023-01-30T07:35:28.161Z,5.12
2023-01-30T07:40:29.095Z,5.75
2023-01-30T07:45:44.110Z,4.70
2023-01-30T07:50:45.906Z,4.80
2023-01-30T07:55:46.982Z,4.72
2023-01-30T08:00:47.896Z,4.35
2023-01-30T08:05:49.405Z,4.25
2023-01-30T08:10:50.472Z,4.70
2023-01-30T08:15:51.661Z,4.20
2023-01-30T08:20:56.693Z,4.10
2023-01-30T08:25:59.379Z,3.72
2023-01-30T08:31:00.536Z,3.87
2023-01-30T08:36:01.381Z,3.55
2023-01-30T08:41:04.938Z,3.08
2023-01-30T08:46:05.960Z,3.42
2023-01-30T08:51:06.806Z,4.37
2023-01-30T08:56:07.582Z,2.53
2023-01-30T09:01:08.747Z,2.58
2023-01-30T09:06:09.568Z,2.60
2023-01-30T09:11:11.643Z,2.20
2023-01-30T09:16:12.573Z,2.10
2023-01-30T09:21:14.118Z,1.90
2023-01-30T09:26:14.938Z,1.87
2023-01-30T09:31:15.938Z,2.25
2023-01-30T09:36:16.862Z,2.10
2023-01-30T09:44:03.001Z,1.92
2023-01-30T09:49:29.535Z,2.08
2023-01-30T09:54:35.622Z,1.62
2023-01-30T09:59:55.192Z,2.22
2023-01-30T10:05:01.725Z,2.17
2023-01-30T10:11:08.943Z,2.22
2023-01-30T10:16:21.694Z,1.48
2023-01-30T10:29:44.870Z,1.65
2023-01-30T10:34:50.879Z,1.70
2023-01-30T10:40:46.442Z,1.70
2023-01-30T10:46:19.294Z,1.70
2023-01-30T10:52:20.730Z,1.50
2023-01-30T10:58:18.826Z,1.15
2023-01-30T11:03:52.299Z,1.40
2023-01-30T11:08:54.646Z,1.40
2023-01-30T11:14:07.676Z,1.43
2023-01-30T11:19:20.144Z,2.53
2023-01-30T11:24:28.820Z,1.67
2023-01-30T11:29:32.578Z,2.65
2023-01-30T11:34:33.346Z,1.92
2023-01-30T11:39:34.689Z,2.37
2023-01-30T11:44:39.511Z,2.50
2023-01-30T11:49:55.859Z,2.72
2023-01-30T11:56:46.639Z,2.30
2023-01-30T12:01:47.797Z,3.10
2023-01-30T12:07:05.151Z,2.37
2023-01-30T12:12:32.654Z,2.60
2023-01-30T12:22:50.358Z,2.05
2023-01-30T12:28:35.490Z,2.30
2023-01-30T12:33:36.737Z,2.80
2023-01-30T12:42:46.992Z,3.00
2023-01-30T12:51:10.458Z,3.55
2023-01-30T12:56:32.990Z,3.55
2023-01-30T13:03:07.640Z,3.13
2023-01-30T13:08:41.986Z,3.75
2023-01-30T13:13:56.224Z,4.82
2023-01-30T13:19:21.170Z,3.30
2023-01-30T13:24:51.082Z,4.65
2023-01-30T13:29:53.455Z,3.12
2023-01-30T13:34:56.310Z,3.67
2023-01-30T13:40:03.352Z,5.22
2023-01-30T13:45:09.242Z,9.90
2023-01-30T13:50:44.797Z,4.55
2023-01-30T13:56:01.669Z,8.98
2023-01-30T14:01:02.699Z,2.72
2023-01-30T14:06:09.760Z,3.35
2023-01-30T14:13:05.130Z,2.75
2023-01-30T14:18:22.160Z,2.95
2023-01-30T14:23:34.132Z,2.67
2023-01-30T14:28:44.185Z,3.22
2023-01-30T14:33:50.682Z,2.85
2023-01-30T14:39:36.822Z,2.47
2023-01-30T14:45:01.188Z,2.97
2023-01-30T14:50:02.075Z,4.82
2023-01-30T14:55:03.880Z,2.83
2023-01-30T15:00:18.616Z,3.35
2023-01-30T15:05:33.810Z,3.08
2023-01-30T15:11:03.863Z,3.70
2023-01-30T15:17:08.719Z,3.22
2023-01-30T15:22:27.603Z,3.15
2023-01-30T15:28:11.382Z,3.50
2023-01-30T15:38:33.540Z,8.27
2023-01-30T15:49:22.932Z,3.47
2023-01-30T15:54:23.716Z,3.47
2023-01-30T15:59:39.387Z,4.43
2023-01-30T16:04:40.338Z,4.03
2023-01-30T16:09:42.663Z,5.87
2023-01-30T16:14:46.377Z,5.72
2023-01-30T16:19:47.217Z,2.92
2023-01-30T16:24:53.197Z,3.28
2023-01-30T16:29:59.711Z,4.07
2023-01-30T16:35:30.516Z,4.35
2023-01-30T16:40:45.200Z,3.12
2023-01-30T16:47:22.939Z,16.60
2023-01-30T16:52:46.541Z,8.65
2023-01-30T16:58:02.254Z,20.27
2023-01-30T17:03:07.488Z,10.63
2023-01-30T17:08:53.770Z,16.40
2023-01-30T17:14:19.049Z,15.27
2023-01-30T17:19:22.576Z,12.82
2023-01-30T17:24:24.669Z,9.68
2023-01-30T17:29:41.353Z,7.37
2023-01-30T17:34:43.176Z,9.23
2023-01-30T17:39:44.286Z,8.15
2023-01-30T17:44:45.144Z,6.20
2023-01-30T17:49:45.880Z,7.40
2023-01-30T17:54:46.915Z,8.70
2023-01-30T17:59:47.668Z,4.40
2023-01-30T18:04:48.429Z,3.35
2023-01-30T18:09:49.189Z,6.80
2023-01-30T18:14:49.954Z,3.80
2023-01-30T18:19:50.945Z,5.85
2023-01-30T18:24:51.789Z,7.93
2023-01-30T18:29:52.583Z,4.07
2023-01-30T18:34:53.342Z,3.03
2023-01-30T18:39:54.163Z,3.00
2023-01-30T18:44:55.380Z,6.95
2023-01-30T18:49:56.154Z,4.28
2023-01-30T18:54:57.003Z,3.42
2023-01-30T18:59:57.751Z,2.75
2023-01-30T19:04:58.508Z,3.78
2023-01-30T19:09:59.248Z,3.40
2023-01-30T19:15:00.811Z,4.10
2023-01-30T19:20:04.010Z,3.97
2023-01-30T19:25:05.795Z,5.87
2023-01-30T19:30:07.724Z,5.07
2023-01-30T19:35:09.004Z,2.90
2023-01-30T19:40:11.096Z,3.85
2023-01-30T19:45:11.825Z,5.15
2023-01-30T19:50:13.149Z,5.72
2023-01-30T19:55:17.809Z,3.37
2023-01-30T20:00:20.783Z,3.15
2023-01-30T20:10:22.517Z,4.35
2023-01-30T20:15:23.273Z,4.72
2023-01-30T20:20:24.042Z,7.72
2023-01-30T20:25:24.943Z,5.82
2023-01-30T20:30:25.696Z,6.75
2023-01-30T20:35:26.431Z,4.72
2023-01-30T20:40:27.210Z,5.47
2023-01-30T20:45:27.985Z,4.62
2023-01-30T20:50:29.098Z,5.22
2023-01-30T20:55:29.916Z,4.18
2023-01-30T21:00:30.664Z,4.15
2023-01-30T21:05:31.413Z,4.18
2023-01-30T21:10:36.077Z,3.33
2023-01-30T21:15:36.973Z,4.03
2023-01-30T21:20:38.266Z,3.80
2023-01-30T21:25:39.173Z,4.53
2023-01-30T21:30:41.174Z,3.50
2023-01-30T21:35:41.947Z,3.10
2023-01-30T21:41:10.141Z,3.05
2023-01-30T21:46:15.835Z,2.72
2023-01-30T21:51:16.564Z,3.42
2023-01-30T21:56:17.573Z,3.15
2023-01-30T22:01:18.376Z,3.53
2023-01-30T22:06:19.908Z,6.82
2023-01-30T22:11:20.676Z,7.90
2023-01-30T22:16:25.287Z,6.85
2023-01-30T22:21:28.468Z,8.45
2023-01-30T22:26:29.454Z,3.83
2023-01-30T22:31:35.465Z,7.07
2023-01-30T22:36:37.181Z,6.30
2023-01-30T22:41:38.667Z,7.20
2023-01-30T22:46:40.505Z,4.65
2023-01-30T22:51:42.787Z,10.05
2023-01-30T22:56:45.733Z,8.30
2023-01-30T23:01:49.816Z,8.70
2023-01-30T23:06:51.435Z,11.90
2023-01-30T23:12:13.549Z,6.85
2023-01-30T23:17:34.257Z,13.62
2023-01-30T23:22:35.529Z,5.90
2023-01-30T23:27:36.733Z,7.97
2023-01-30T23:32:38.084Z,9.32
2023-01-30T23:37:57.405Z,4.55
2023-01-30T23:42:58.237Z,8.80
2023-01-30T23:47:59.000Z,6.70
2023-01-30T23:52:59.756Z,6.70
2023-01-30T23:58:01.130Z,10.00
